createdAt,value
2023-05-27T00:00:46.404Z,142.45
2023-05-27T00:01:46.401Z,139.48
2023-05-27T00:02:46.521Z,138.72
2023-05-27T00:03:46.607Z,137.32
2023-05-27T00:04:46.570Z,135.76
2023-05-27T00:05:46.509Z,137.64
2023-05-27T00:06:46.525Z,139.92
2023-05-27T00:07:46.530Z,139.35
2023-05-27T00:08:46.557Z,138.18
2023-05-27T00:09:46.624Z,133.87
2023-05-27T00:10:46.629Z,135.32
2023-05-27T00:11:46.629Z,133.25
2023-05-27T00:12:46.656Z,137.25
2023-05-27T00:13:46.669Z,136.69
2023-05-27T00:14:46.676Z,136.50
2023-05-27T00:15:46.721Z,137.98
2023-05-27T00:16:46.761Z,136.04
2023-05-27T00:17:46.794Z,135.97
2023-05-27T00:18:46.811Z,132.59
2023-05-27T00:19:46.810Z,131.93
2023-05-27T00:20:46.874Z,133.21
2023-05-27T00:21:46.863Z,133.90
2023-05-27T00:22:46.882Z,134.38
2023-05-27T00:23:46.903Z,131.22
2023-05-27T00:24:46.917Z,131.97
2023-05-27T00:25:46.945Z,134.82
2023-05-27T00:26:46.977Z,134.68
2023-05-27T00:27:47.003Z,132.90
2023-05-27T00:28:47.030Z,132.85
2023-05-27T00:29:47.050Z,133.06
2023-05-27T00:30:47.078Z,133.81
2023-05-27T00:31:47.203Z,133.17
2023-05-27T00:32:47.144Z,133.35
2023-05-27T00:33:47.142Z,133.31
2023-05-27T00:34:47.153Z,133.42
2023-05-27T00:35:47.268Z,133.27
2023-05-27T00:36:47.199Z,134.85
2023-05-27T00:37:47.224Z,134.22
2023-05-27T00:38:47.269Z,133.90
2023-05-27T00:39:47.293Z,130.93
2023-05-27T00:40:47.305Z,132.26
2023-05-27T00:41:47.329Z,131.54
2023-05-27T00:42:47.376Z,131.53
2023-05-27T00:43:47.390Z,131.58
2023-05-27T00:44:47.426Z,134.44
2023-05-27T00:45:47.462Z,134.16
2023-05-27T00:46:47.498Z,135.71
2023-05-27T00:47:47.597Z,138.73
2023-05-27T00:48:47.566Z,140.96
2023-05-27T00:49:47.597Z,142.30
2023-05-27T00:50:47.622Z,141.25
2023-05-27T00:51:47.667Z,140.19
2023-05-27T00:52:47.687Z,143.74
2023-05-27T00:53:47.698Z,144.33
2023-05-27T00:54:47.725Z,144.69
2023-05-27T00:55:47.774Z,144.21
2023-05-27T00:56:47.802Z,145.44
2023-05-27T00:57:47.832Z,144.48
2023-05-27T00:58:47.862Z,147.96
2023-05-27T00:59:47.887Z,145.63
2023-05-27T01:00:47.921Z,145.15
2023-05-27T01:01:48.009Z,146.34
2023-05-27T01:02:48.057Z,149.76
2023-05-27T01:03:48.035Z,150.56
2023-05-27T01:04:48.079Z,150.32
2023-05-27T01:05:48.146Z,148.13
2023-05-27T01:06:48.108Z,149.58
2023-05-27T01:07:48.164Z,149.83
2023-05-27T01:08:48.186Z,147.47
2023-05-27T01:09:48.212Z,147.11
2023-05-27T01:10:48.264Z,145.49
2023-05-27T01:11:48.314Z,145.92
2023-05-27T01:12:48.339Z,146.01
2023-05-27T01:13:48.397Z,147.79
2023-05-27T01:14:48.419Z,145.11
2023-05-27T01:15:48.460Z,144.56
2023-05-27T01:16:48.556Z,142.67
2023-05-27T01:17:48.580Z,142.45
2023-05-27T01:18:48.572Z,145.17
2023-05-27T01:19:48.595Z,140.76
2023-05-27T01:20:48.715Z,141.26
2023-05-27T01:21:48.672Z,142.79
2023-05-27T01:22:48.714Z,141.17
2023-05-27T01:23:48.757Z,140.01
2023-05-27T01:24:48.773Z,142.09
2023-05-27T01:25:49.069Z,142.15
2023-05-27T01:26:48.871Z,145.10
2023-05-27T01:27:48.910Z,144.03
2023-05-27T01:28:48.954Z,143.21
2023-05-27T01:29:48.996Z,142.02
2023-05-27T01:30:49.024Z,144.81
2023-05-27T01:31:49.145Z,146.21
2023-05-27T01:32:49.175Z,145.12
2023-05-27T01:33:49.247Z,142.17
2023-05-27T01:34:49.211Z,146.67
2023-05-27T01:35:49.395Z,144.72
2023-05-27T01:36:49.312Z,146.51
2023-05-27T01:37:49.310Z,147.24
2023-05-27T01:38:49.362Z,145.78
2023-05-27T01:39:49.394Z,146.98
2023-05-27T01:40:49.463Z,147.05
2023-05-27T01:41:49.518Z,145.83
2023-05-27T01:42:49.538Z,146.38
2023-05-27T01:43:49.583Z,145.19
2023-05-27T01:44:49.618Z,148.48
2023-05-27T01:45:49.854Z,148.90
2023-05-27T01:46:49.782Z,148.41
2023-05-27T01:47:49.781Z,147.78
2023-05-27T01:48:49.801Z,149.03
2023-05-27T01:49:49.837Z,149.58
2023-05-27T01:50:49.869Z,149.67
2023-05-27T01:51:49.901Z,149.03
2023-05-27T01:52:49.925Z,150.20
2023-05-27T01:53:49.999Z,149.99
2023-05-27T01:54:50.010Z,148.39
2023-05-27T01:55:50.256Z,150.48
2023-05-27T01:56:50.096Z,149.90
2023-05-27T01:57:50.154Z,149.80
2023-05-27T01:58:50.210Z,152.86
2023-05-27T01:59:50.243Z,154.94
2023-05-27T02:00:50.361Z,156.15
2023-05-27T02:01:50.352Z,160.41
2023-05-27T02:02:50.452Z,160.97
2023-05-27T02:03:50.541Z,159.93
2023-05-27T02:04:50.495Z,156.96
2023-05-27T02:05:50.520Z,159.01
2023-05-27T02:06:50.564Z,160.74
2023-05-27T02:07:50.625Z,159.75
2023-05-27T02:08:50.657Z,160.34
2023-05-27T02:09:50.736Z,163.11
2023-05-27T02:10:50.766Z,159.75
2023-05-27T02:11:50.792Z,160.99
2023-05-27T02:12:50.845Z,162.12
2023-05-27T02:13:50.900Z,159.96
2023-05-27T02:14:50.927Z,161.59
2023-05-27T02:15:51.230Z,158.88
2023-05-27T02:16:51.071Z,157.23
2023-05-27T02:17:51.086Z,155.69
2023-05-27T02:18:51.140Z,154.80
2023-05-27T02:19:51.172Z,153.46
2023-05-27T02:20:51.257Z,153.04
2023-05-27T02:21:51.275Z,151.13
2023-05-27T02:22:51.324Z,151.23
2023-05-27T02:23:51.375Z,152.39
2023-05-27T02:24:51.422Z,152.71
2023-05-27T02:25:51.577Z,150.82
2023-05-27T02:26:51.516Z,155.23
2023-05-27T02:27:51.545Z,156.93
2023-05-27T02:28:51.624Z,158.80
2023-05-27T02:29:51.673Z,159.60
2023-05-27T02:30:51.730Z,158.07
2023-05-27T02:31:51.741Z,158.02
2023-05-27T02:32:51.820Z,160.48
2023-05-27T02:33:51.851Z,162.19
2023-05-27T02:34:51.889Z,160.02
2023-05-27T02:35:52.171Z,158.45
2023-05-27T02:36:51.971Z,158.20
2023-05-27T02:37:52.026Z,159.07
2023-05-27T02:38:52.097Z,159.56
2023-05-27T02:39:52.119Z,161.40
2023-05-27T02:40:52.173Z,163.06
2023-05-27T02:41:52.210Z,163.79
2023-05-27T02:42:52.242Z,161.56
2023-05-27T02:43:52.318Z,165.59
2023-05-27T02:44:52.341Z,166.27
2023-05-27T02:45:52.570Z,170.42
2023-05-27T02:46:52.580Z,171.29
2023-05-27T02:47:52.529Z,168.06
2023-05-27T02:48:52.563Z,164.30
2023-05-27T02:49:52.616Z,165.91
2023-05-27T02:50:52.646Z,169.38
2023-05-27T02:51:52.710Z,169.51
2023-05-27T02:52:52.788Z,172.98
2023-05-27T02:53:52.808Z,172.51
2023-05-27T02:54:52.856Z,171.59
2023-05-27T02:55:53.141Z,172.38
2023-05-27T02:56:52.960Z,174.96
2023-05-27T02:57:53.001Z,174.87
2023-05-27T02:58:53.062Z,178.23
2023-05-27T02:59:53.153Z,175.88
2023-05-27T03:00:53.166Z,175.83
2023-05-27T03:01:53.284Z,172.09
2023-05-27T03:02:53.393Z,171.38
2023-05-27T03:03:53.357Z,175.21
2023-05-27T03:04:53.385Z,175.47
2023-05-27T03:05:53.541Z,175.73
2023-05-27T03:06:53.465Z,176.86
2023-05-27T03:07:53.534Z,176.28
2023-05-27T03:08:53.578Z,178.27
2023-05-27T03:09:53.633Z,180.23
2023-05-27T03:10:53.699Z,180.67
2023-05-27T03:11:53.733Z,180.15
2023-05-27T03:12:53.785Z,178.28
2023-05-27T03:13:53.891Z,179.55
2023-05-27T03:14:53.894Z,178.99
2023-05-27T03:15:54.026Z,180.45
2023-05-27T03:16:54.024Z,180.87
2023-05-27T03:17:54.071Z,183.20
2023-05-27T03:18:54.124Z,181.12
2023-05-27T03:19:54.177Z,180.19
2023-05-27T03:20:54.217Z,182.77
2023-05-27T03:21:54.276Z,180.97
2023-05-27T03:22:54.308Z,182.74
2023-05-27T03:23:54.384Z,186.23
2023-05-27T03:24:54.413Z,187.34
2023-05-27T03:25:54.469Z,186.62
2023-05-27T03:26:54.538Z,186.43
2023-05-27T03:27:54.586Z,187.98
2023-05-27T03:28:54.633Z,186.71
2023-05-27T03:29:54.675Z,189.41
2023-05-27T03:30:54.740Z,188.35
2023-05-27T03:31:54.826Z,189.64
2023-05-27T03:32:54.891Z,188.95
2023-05-27T03:33:54.947Z,188.16
2023-05-27T03:34:54.965Z,188.50
2023-05-27T03:35:55.020Z,192.35
2023-05-27T03:36:55.069Z,192.03
2023-05-27T03:37:55.144Z,192.39
2023-05-27T03:38:55.184Z,191.10
2023-05-27T03:39:55.214Z,194.80
2023-05-27T03:40:55.273Z,196.93
2023-05-27T03:41:55.333Z,195.49
2023-05-27T03:42:55.392Z,196.77
2023-05-27T03:43:55.453Z,197.15
2023-05-27T03:44:55.508Z,195.52
2023-05-27T03:45:55.867Z,197.40
2023-05-27T03:46:55.596Z,199.50
2023-05-27T03:47:55.688Z,200.47
2023-05-27T03:48:55.696Z,201.14
2023-05-27T03:49:55.749Z,198.68
2023-05-27T03:50:55.810Z,199.80
2023-05-27T03:51:55.861Z,198.83
2023-05-27T03:52:55.916Z,197.38
2023-05-27T03:53:55.993Z,200.33
2023-05-27T03:54:56.025Z,203.59
2023-05-27T03:55:56.075Z,202.40
2023-05-27T03:56:56.158Z,203.81
2023-05-27T03:57:56.190Z,202.68
2023-05-27T03:58:56.229Z,203.68
2023-05-27T03:59:56.305Z,201.99
2023-05-27T04:00:56.332Z,201.32
2023-05-27T04:01:56.423Z,203.46
2023-05-27T04:02:56.528Z,202.71
2023-05-27T04:03:56.613Z,201.96
2023-05-27T04:04:56.561Z,204.12
2023-05-27T04:05:56.753Z,204.23
2023-05-27T04:06:56.658Z,203.97
2023-05-27T04:07:56.704Z,203.04
2023-05-27T04:08:56.765Z,204.53
2023-05-27T04:09:56.849Z,203.55
2023-05-27T04:10:56.873Z,202.83
2023-05-27T04:11:56.932Z,201.86
2023-05-27T04:12:56.994Z,202.32
2023-05-27T04:13:57.072Z,203.94
2023-05-27T04:14:57.104Z,203.02
2023-05-27T04:15:57.210Z,205.25
2023-05-27T04:16:57.230Z,201.38
2023-05-27T04:17:57.306Z,202.90
2023-05-27T04:18:57.348Z,200.56
2023-05-27T04:19:57.425Z,200.93
2023-05-27T04:20:57.443Z,200.76
2023-05-27T04:21:57.514Z,199.98
2023-05-27T04:22:57.568Z,200.24
2023-05-27T04:23:57.663Z,199.40
2023-05-27T04:24:57.667Z,198.85
2023-05-27T04:25:57.718Z,201.75
2023-05-27T04:26:57.802Z,200.62
2023-05-27T04:27:57.843Z,203.49
2023-05-27T04:28:57.888Z,201.50
2023-05-27T04:29:57.955Z,200.55
2023-05-27T04:30:58.014Z,201.57
2023-05-27T04:31:58.111Z,203.55
2023-05-27T04:32:58.155Z,207.71
2023-05-27T04:33:58.169Z,209.70
2023-05-27T04:34:58.242Z,210.21
2023-05-27T04:35:58.267Z,210.01
2023-05-27T04:36:58.311Z,212.36
2023-05-27T04:37:58.380Z,212.36
2023-05-27T04:38:58.448Z,213.69
2023-05-27T04:39:58.520Z,213.16
2023-05-27T04:40:58.558Z,216.67
2023-05-27T04:41:58.624Z,217.59
2023-05-27T04:42:58.676Z,216.03
2023-05-27T04:43:58.716Z,218.32
2023-05-27T04:44:58.794Z,218.50
2023-05-27T04:45:58.849Z,219.68
2023-05-27T04:46:58.985Z,219.88
2023-05-27T04:47:59.026Z,220.64
2023-05-27T04:48:59.018Z,219.43
2023-05-27T04:49:59.051Z,218.99
2023-05-27T04:50:59.121Z,219.76
2023-05-27T04:51:59.165Z,217.46
2023-05-27T04:53:00.130Z,218.69
2023-05-27T04:53:59.472Z,218.70
2023-05-27T04:54:59.528Z,216.06
2023-05-27T04:55:59.584Z,214.77
2023-05-27T04:56:59.639Z,216.07
2023-05-27T04:57:59.693Z,213.57
2023-05-27T04:58:59.770Z,215.50
2023-05-27T04:59:59.827Z,214.59
2023-05-27T05:00:59.868Z,214.85
2023-05-27T05:01:59.994Z,213.42
2023-05-27T05:03:00.101Z,212.04
2023-05-27T05:04:00.090Z,209.46
2023-05-27T05:05:00.082Z,208.46
2023-05-27T05:06:00.182Z,211.36
2023-05-27T05:07:00.217Z,215.24
2023-05-27T05:08:00.217Z,219.70
2023-05-27T05:09:00.270Z,220.15
2023-05-27T05:10:00.308Z,221.04
2023-05-27T05:11:00.339Z,222.85
2023-05-27T05:12:00.405Z,223.36
2023-05-27T05:13:00.448Z,225.63
2023-05-27T05:14:00.480Z,226.63
2023-05-27T05:15:00.541Z,227.84
2023-05-27T05:16:00.579Z,226.20
2023-05-27T05:17:00.700Z,224.83
2023-05-27T05:18:01.885Z,225.31
2023-05-27T05:19:00.718Z,227.47
2023-05-27T05:20:00.805Z,226.95
2023-05-27T05:21:00.769Z,227.97
2023-05-27T05:22:00.819Z,228.82
2023-05-27T05:23:00.862Z,228.24
2023-05-27T05:24:00.901Z,229.89
2023-05-27T05:25:00.936Z,230.41
2023-05-27T05:26:00.944Z,229.24
2023-05-27T05:27:00.972Z,230.43
2023-05-27T05:28:01.025Z,229.15
2023-05-27T05:29:01.073Z,229.69
2023-05-27T05:30:01.104Z,227.43
2023-05-27T05:31:01.119Z,228.15
2023-05-27T05:32:01.170Z,224.99
2023-05-27T05:33:01.239Z,224.20
2023-05-27T05:34:01.154Z,219.70
2023-05-27T05:35:01.166Z,221.29
2023-05-27T05:36:01.202Z,221.07
2023-05-27T05:37:01.200Z,223.84
2023-05-27T05:38:01.200Z,227.55
2023-05-27T05:39:01.246Z,231.91
2023-05-27T05:40:01.214Z,233.07
2023-05-27T05:41:01.246Z,228.57
2023-05-27T05:42:01.261Z,229.96
2023-05-27T05:43:01.235Z,235.36
2023-05-27T05:44:01.254Z,239.82
2023-05-27T05:45:01.239Z,242.18
2023-05-27T05:46:01.393Z,244.28
2023-05-27T05:47:01.245Z,245.19
2023-05-27T05:48:01.292Z,245.24
2023-05-27T05:49:01.272Z,244.09
2023-05-27T05:50:01.268Z,244.41
2023-05-27T05:51:01.268Z,242.60
2023-05-27T05:52:01.273Z,243.73
2023-05-27T05:53:01.290Z,243.04
2023-05-27T05:54:01.296Z,242.64
2023-05-27T05:55:01.319Z,242.14
2023-05-27T05:56:01.329Z,241.66
2023-05-27T05:57:01.365Z,241.24
2023-05-27T05:58:01.427Z,241.12
2023-05-27T05:59:01.485Z,240.93
2023-05-27T06:00:01.552Z,241.84
2023-05-27T06:01:01.594Z,241.46
2023-05-27T06:02:01.768Z,240.76
2023-05-27T06:03:01.792Z,242.56
2023-05-27T06:04:01.908Z,240.21
2023-05-27T06:05:01.823Z,239.89
2023-05-27T06:06:01.892Z,240.98
2023-05-27T06:07:02.273Z,240.28
2023-05-27T06:08:02.005Z,239.39
2023-05-27T06:09:02.082Z,240.02
2023-05-27T06:10:02.138Z,238.62
2023-05-27T06:11:02.188Z,238.39
2023-05-27T06:12:02.248Z,236.64
2023-05-27T06:13:02.292Z,238.73
2023-05-27T06:14:02.459Z,236.29
2023-05-27T06:15:02.403Z,237.39
2023-05-27T06:16:02.507Z,237.70
2023-05-27T06:17:02.518Z,236.61
2023-05-27T06:18:02.596Z,240.43
2023-05-27T06:19:02.660Z,237.37
2023-05-27T06:20:02.712Z,237.54
2023-05-27T06:21:02.770Z,236.15
2023-05-27T06:22:02.783Z,236.15
2023-05-27T06:23:02.853Z,233.72
2023-05-27T06:24:02.888Z,235.14
2023-05-27T06:25:02.970Z,233.59
2023-05-27T06:26:02.992Z,234.05
2023-05-27T06:27:03.020Z,233.30
2023-05-27T06:28:03.068Z,232.50
2023-05-27T06:29:03.120Z,228.81
2023-05-27T06:30:03.173Z,228.99
2023-05-27T06:31:03.264Z,226.59
2023-05-27T06:32:03.371Z,228.27
2023-05-27T06:33:03.355Z,229.71
2023-05-27T06:34:03.362Z,229.12
2023-05-27T06:35:03.424Z,226.85
2023-05-27T06:36:03.446Z,225.79
2023-05-27T06:37:03.504Z,226.29
2023-05-27T06:38:03.547Z,226.84
2023-05-27T06:39:03.623Z,224.66
2023-05-27T06:40:03.639Z,227.13
2023-05-27T06:41:03.674Z,225.27
2023-05-27T06:42:03.736Z,225.37
2023-05-27T06:43:03.778Z,221.38
2023-05-27T06:44:03.828Z,217.77
2023-05-27T06:45:03.870Z,220.22
2023-05-27T06:46:05.344Z,222.46
2023-05-27T06:47:04.060Z,219.90
2023-05-27T06:48:04.067Z,215.73
2023-05-27T06:49:04.052Z,215.73
2023-05-27T06:50:04.074Z,216.90
2023-05-27T06:51:04.111Z,216.77
2023-05-27T06:52:04.158Z,219.48
2023-05-27T06:53:04.207Z,220.13
2023-05-27T06:54:04.269Z,219.64
2023-05-27T06:55:04.297Z,218.79
2023-05-27T06:56:04.322Z,218.55
2023-05-27T06:57:04.358Z,219.93
2023-05-27T06:58:04.380Z,220.25
2023-05-27T06:59:04.450Z,220.17
2023-05-27T07:00:04.468Z,221.64
2023-05-27T07:01:04.488Z,222.01
2023-05-27T07:02:04.525Z,219.60
2023-05-27T07:03:04.618Z,218.91
2023-05-27T07:04:04.578Z,217.02
2023-05-27T07:05:04.607Z,215.12
2023-05-27T07:06:04.664Z,215.96
2023-05-27T07:07:04.639Z,213.00
2023-05-27T07:08:04.678Z,214.03
2023-05-27T07:09:04.708Z,212.43
2023-05-27T07:10:05.033Z,212.92
2023-05-27T07:11:04.733Z,212.25
2023-05-27T07:12:04.765Z,212.25
2023-05-27T07:13:04.786Z,208.63
2023-05-27T07:14:04.855Z,209.47
2023-05-27T07:15:04.814Z,209.41
2023-05-27T07:16:04.861Z,205.05
2023-05-27T07:17:04.826Z,204.48
2023-05-27T07:18:04.946Z,200.94
2023-05-27T07:19:04.865Z,202.07
2023-05-27T07:20:04.871Z,200.88
2023-05-27T07:21:04.864Z,199.27
2023-05-27T07:22:04.872Z,200.57
2023-05-27T07:23:04.877Z,198.77
2023-05-27T07:24:04.876Z,197.10
2023-05-27T07:25:04.885Z,198.21
2023-05-27T07:26:04.883Z,197.23
2023-05-27T07:27:04.911Z,198.41
2023-05-27T07:28:04.920Z,197.04
2023-05-27T07:29:04.934Z,197.78
2023-05-27T07:30:04.982Z,196.69
2023-05-27T07:31:04.923Z,195.28
2023-05-27T07:32:04.911Z,194.87
2023-05-27T07:33:04.932Z,194.39
2023-05-27T07:34:04.908Z,194.65
2023-05-27T07:35:04.916Z,194.24
2023-05-27T07:36:04.916Z,195.17
2023-05-27T07:37:04.925Z,193.19
2023-05-27T07:38:04.930Z,192.32
2023-05-27T07:39:04.948Z,193.12
2023-05-27T07:40:04.945Z,191.87
2023-05-27T07:41:04.951Z,190.19
2023-05-27T07:42:04.946Z,194.12
2023-05-27T07:43:04.935Z,190.36
2023-05-27T07:44:04.949Z,190.12
2023-05-27T07:45:04.964Z,189.15
2023-05-27T07:46:04.988Z,191.81
2023-05-27T07:47:05.012Z,188.63
2023-05-27T07:48:05.010Z,188.18
2023-05-27T07:49:04.946Z,188.76
2023-05-27T07:50:04.936Z,188.01
2023-05-27T07:51:04.945Z,187.76
2023-05-27T07:52:04.930Z,186.72
2023-05-27T07:53:04.977Z,188.37
2023-05-27T07:54:04.961Z,187.99
2023-05-27T07:55:04.925Z,189.69
2023-05-27T07:56:04.950Z,188.30
2023-05-27T07:57:05.131Z,186.47
2023-05-27T07:58:04.930Z,184.67
2023-05-27T07:59:04.962Z,184.74
2023-05-27T08:00:05.011Z,186.91
2023-05-27T08:01:05.034Z,187.11
2023-05-27T08:02:05.072Z,185.90
2023-05-27T08:03:05.018Z,186.20
2023-05-27T08:04:16.300Z,186.56
2023-05-27T08:05:06.037Z,186.78
2023-05-27T08:06:05.029Z,186.87
2023-05-27T08:07:05.028Z,187.21
2023-05-27T08:08:04.994Z,185.09
2023-05-27T08:09:04.981Z,187.12
2023-05-27T08:10:04.983Z,186.67
2023-05-27T08:11:04.956Z,188.59
2023-05-27T08:12:04.947Z,188.71
2023-05-27T08:13:04.950Z,189.06
2023-05-27T08:14:05.027Z,187.74
2023-05-27T08:15:05.097Z,187.69
2023-05-27T08:16:05.176Z,183.31
2023-05-27T08:17:05.349Z,184.36
2023-05-27T08:18:05.345Z,187.06
2023-05-27T08:19:05.342Z,189.13
2023-05-27T08:20:05.432Z,190.69
2023-05-27T08:21:05.466Z,189.49
2023-05-27T08:22:05.920Z,185.44
2023-05-27T08:23:05.583Z,185.43
2023-05-27T08:24:05.647Z,186.93
2023-05-27T08:25:05.694Z,186.19
2023-05-27T08:26:05.753Z,185.26
2023-05-27T08:27:05.824Z,182.57
2023-05-27T08:28:05.889Z,183.04
2023-05-27T08:29:05.944Z,181.45
2023-05-27T08:30:06.002Z,181.94
2023-05-27T08:31:06.046Z,181.21
2023-05-27T08:32:06.171Z,182.42
2023-05-27T08:33:06.208Z,181.12
2023-05-27T08:34:06.206Z,180.93
2023-05-27T08:35:06.284Z,176.71
2023-05-27T08:36:06.347Z,177.33
2023-05-27T08:37:06.372Z,175.72
2023-05-27T08:38:06.422Z,177.31
2023-05-27T08:39:06.478Z,175.75
2023-05-27T08:40:06.547Z,176.26
2023-05-27T08:41:06.737Z,173.60
2023-05-27T08:42:06.652Z,170.73
2023-05-27T08:43:06.681Z,170.03
2023-05-27T08:44:20.493Z,169.67
2023-05-27T08:45:07.728Z,169.74
2023-05-27T08:46:06.754Z,169.27
2023-05-27T08:47:06.726Z,168.63
2023-05-27T08:48:06.764Z,164.85
2023-05-27T08:49:06.691Z,164.77
2023-05-27T08:50:06.709Z,164.12
2023-05-27T08:51:06.754Z,163.21
2023-05-27T08:52:06.688Z,162.69
2023-05-27T08:53:06.690Z,163.00
2023-05-27T08:54:06.657Z,161.83
2023-05-27T08:55:06.663Z,160.91
2023-05-27T08:56:06.646Z,157.20
2023-05-27T08:57:06.721Z,157.49
2023-05-27T08:58:06.727Z,155.81
2023-05-27T08:59:06.770Z,157.14
2023-05-27T09:00:06.825Z,156.39
2023-05-27T09:01:06.890Z,156.10
2023-05-27T09:02:06.979Z,156.21
2023-05-27T09:03:06.969Z,155.89
2023-05-27T09:04:07.075Z,154.37
2023-05-27T09:05:07.036Z,155.26
2023-05-27T09:06:07.073Z,155.39
2023-05-27T09:07:07.082Z,154.06
2023-05-27T09:08:07.125Z,152.61
2023-05-27T09:09:07.140Z,152.81
2023-05-27T09:10:07.185Z,152.98
2023-05-27T09:11:07.289Z,151.61
2023-05-27T09:12:07.274Z,151.54
2023-05-27T09:13:07.301Z,150.55
2023-05-27T09:14:07.349Z,150.20
2023-05-27T09:15:07.394Z,149.42
2023-05-27T09:16:07.439Z,149.45
2023-05-27T09:17:07.461Z,150.81
2023-05-27T09:18:07.492Z,147.71
2023-05-27T09:19:07.577Z,146.83
2023-05-27T09:20:07.594Z,147.55
2023-05-27T09:21:07.619Z,148.63
2023-05-27T09:22:07.627Z,149.75
2023-05-27T09:23:07.687Z,147.71
2023-05-27T09:24:07.673Z,148.42
2023-05-27T09:25:07.720Z,147.41
2023-05-27T09:26:07.744Z,145.27
2023-05-27T09:27:07.779Z,144.44
2023-05-27T09:28:07.834Z,144.94
2023-05-27T09:29:07.858Z,145.46
2023-05-27T09:30:07.900Z,145.01
2023-05-27T09:31:08.025Z,143.94
2023-05-27T09:32:07.946Z,144.15
2023-05-27T09:33:07.994Z,142.90
2023-05-27T09:34:08.005Z,142.63
2023-05-27T09:35:08.057Z,142.46
2023-05-27T09:36:08.079Z,141.82
2023-05-27T09:37:08.085Z,141.57
2023-05-27T09:38:08.134Z,139.44
2023-05-27T09:39:08.143Z,140.63
2023-05-27T09:40:08.176Z,137.24
2023-05-27T09:41:08.201Z,140.51
2023-05-27T09:42:08.208Z,140.59
2023-05-27T09:43:08.245Z,143.32
2023-05-27T09:44:08.278Z,142.18
2023-05-27T09:45:08.298Z,139.72
2023-05-27T09:46:08.343Z,140.96
2023-05-27T09:47:08.326Z,139.94
2023-05-27T09:48:08.367Z,139.11
2023-05-27T09:49:08.383Z,138.85
2023-05-27T09:50:08.420Z,138.38
2023-05-27T09:51:08.406Z,138.22
2023-05-27T09:52:08.426Z,139.97
2023-05-27T09:53:12.254Z,138.47
2023-05-27T09:54:08.484Z,138.55
2023-05-27T09:55:08.435Z,138.62
2023-05-27T09:56:08.451Z,138.82
2023-05-27T09:57:08.416Z,139.49
2023-05-27T09:58:08.411Z,140.01
2023-05-27T09:59:08.408Z,139.18
2023-05-27T10:00:08.410Z,137.35
2023-05-27T10:01:08.401Z,136.95
2023-05-27T10:02:08.381Z,136.93
2023-05-27T10:03:08.370Z,138.55
2023-05-27T10:04:08.378Z,137.22
2023-05-27T10:05:08.416Z,137.34
2023-05-27T10:06:08.352Z,136.02
2023-05-27T10:07:09.677Z,136.66
2023-05-27T10:08:17.065Z,137.64
2023-05-27T10:09:09.333Z,137.86
2023-05-27T10:10:08.365Z,138.09
2023-05-27T10:11:08.335Z,137.78
2023-05-27T10:12:08.303Z,136.45
2023-05-27T10:13:08.293Z,136.33
2023-05-27T10:14:08.300Z,134.29
2023-05-27T10:15:08.293Z,135.39
2023-05-27T10:16:08.284Z,135.27
2023-05-27T10:17:08.360Z,135.62
2023-05-27T10:18:08.283Z,135.91
2023-05-27T10:19:08.250Z,134.17
2023-05-27T10:20:08.292Z,133.36
2023-05-27T10:21:08.242Z,132.33
2023-05-27T10:22:08.251Z,132.54
2023-05-27T10:23:08.229Z,130.13
2023-05-27T10:24:08.219Z,130.30
2023-05-27T10:25:08.230Z,130.66
2023-05-27T10:26:08.209Z,130.96
2023-05-27T10:27:08.219Z,131.65
2023-05-27T10:28:08.193Z,130.75
2023-05-27T10:29:08.306Z,129.31
2023-05-27T10:30:08.188Z,132.13
2023-05-27T10:31:08.223Z,133.21
2023-05-27T10:32:08.191Z,132.19
2023-05-27T10:33:08.205Z,132.87
2023-05-27T10:34:08.185Z,130.72
2023-05-27T10:35:08.180Z,129.03
2023-05-27T10:36:08.162Z,128.47
2023-05-27T10:37:08.198Z,127.81
2023-05-27T10:38:08.198Z,127.63
2023-05-27T10:39:08.280Z,129.15
2023-05-27T10:40:08.248Z,129.42
2023-05-27T10:41:08.273Z,130.32
2023-05-27T10:42:08.291Z,129.73
2023-05-27T10:43:08.294Z,129.36
2023-05-27T10:44:08.330Z,129.20
2023-05-27T10:45:08.330Z,130.17
2023-05-27T10:46:08.416Z,131.32
2023-05-27T10:47:08.408Z,128.58
2023-05-27T10:48:08.554Z,129.98
2023-05-27T10:49:08.404Z,129.00
2023-05-27T10:50:08.438Z,129.66
2023-05-27T10:51:08.454Z,128.23
2023-05-27T10:52:08.461Z,130.09
2023-05-27T10:53:08.496Z,133.10
2023-05-27T10:55:08.532Z,133.95
2023-05-27T10:56:08.515Z,134.05
2023-05-27T10:57:08.517Z,132.71
2023-05-27T10:58:08.490Z,133.56
2023-05-27T10:59:08.494Z,131.74
2023-05-27T11:00:08.495Z,131.86
2023-05-27T11:01:08.492Z,132.68
2023-05-27T11:02:08.514Z,133.00
2023-05-27T11:03:08.611Z,135.24
2023-05-27T11:04:08.899Z,133.11
2023-05-27T11:05:08.460Z,133.64
2023-05-27T11:06:08.460Z,134.81
2023-05-27T11:07:08.453Z,132.91
2023-05-27T11:08:08.440Z,134.11
2023-05-27T11:09:08.438Z,133.36
2023-05-27T11:10:08.438Z,133.58
2023-05-27T11:11:08.426Z,131.95
2023-05-27T11:12:08.428Z,133.30
2023-05-27T11:13:08.396Z,131.25
2023-05-27T11:14:08.400Z,129.32
2023-05-27T11:15:08.431Z,130.48
2023-05-27T11:16:08.478Z,130.36
2023-05-27T11:17:08.378Z,129.90
2023-05-27T11:18:08.415Z,129.53
2023-05-27T11:19:08.354Z,128.47
2023-05-27T11:20:09.111Z,129.43
2023-05-27T11:21:08.343Z,127.42
2023-05-27T11:22:08.350Z,129.55
2023-05-27T11:23:08.348Z,128.05
2023-05-27T11:24:08.325Z,129.15
2023-05-27T11:25:08.333Z,128.16
2023-05-27T11:26:08.305Z,129.92
2023-05-27T11:27:08.322Z,132.35
2023-05-27T11:28:08.319Z,132.01
2023-05-27T11:29:08.291Z,132.15
2023-05-27T11:30:08.333Z,131.25
2023-05-27T11:31:08.303Z,131.37
2023-05-27T11:32:08.277Z,131.23
2023-05-27T11:33:16.755Z,132.52
2023-05-27T11:34:09.257Z,132.66
2023-05-27T11:35:08.304Z,132.29
2023-05-27T11:36:08.256Z,131.75
2023-05-27T11:37:08.244Z,131.85
2023-05-27T11:38:08.251Z,129.52
2023-05-27T11:39:08.219Z,131.05
2023-05-27T11:40:08.228Z,131.01
2023-05-27T11:41:08.221Z,131.90
2023-05-27T11:42:08.199Z,131.16
2023-05-27T11:43:08.206Z,132.89
2023-05-27T11:44:08.195Z,134.74
2023-05-27T11:45:08.206Z,133.35
2023-05-27T11:46:08.243Z,134.14
2023-05-27T11:47:08.164Z,133.89
2023-05-27T11:48:08.280Z,132.24
2023-05-27T11:49:08.178Z,130.55
2023-05-27T11:50:08.157Z,130.34
2023-05-27T11:51:08.140Z,130.86
2023-05-27T11:52:08.133Z,128.70
2023-05-27T11:53:08.135Z,130.22
2023-05-27T11:54:08.145Z,126.78
2023-05-27T11:55:08.157Z,128.27
2023-05-27T11:56:08.152Z,125.47
2023-05-27T11:57:08.152Z,127.60
2023-05-27T11:58:08.193Z,128.06
2023-05-27T11:59:08.210Z,128.57
2023-05-27T12:00:08.231Z,127.71
2023-05-27T12:01:08.267Z,124.21
2023-05-27T12:02:08.346Z,120.84
2023-05-27T12:03:08.390Z,120.40
2023-05-27T12:04:08.330Z,120.26
2023-05-27T12:05:10.977Z,121.20
2023-05-27T12:06:09.364Z,121.33
2023-05-27T12:07:18.948Z,120.66
2023-05-27T12:08:09.323Z,121.30
2023-05-27T12:09:08.326Z,121.33
2023-05-27T12:10:08.326Z,122.51
2023-05-27T12:11:08.364Z,121.14
2023-05-27T12:12:08.296Z,119.47
2023-05-27T12:13:08.300Z,119.25
2023-05-27T12:14:08.278Z,114.20
2023-05-27T12:15:08.304Z,110.89
2023-05-27T12:16:08.371Z,111.07
2023-05-27T12:17:08.263Z,113.89
2023-05-27T12:18:08.315Z,109.73
2023-05-27T12:19:08.262Z,110.60
2023-05-27T12:20:08.329Z,114.43
2023-05-27T12:21:08.257Z,107.60
2023-05-27T12:22:08.243Z,110.90
2023-05-27T12:23:08.238Z,111.78
2023-05-27T12:24:08.233Z,106.53
2023-05-27T12:25:08.212Z,102.79
2023-05-27T12:26:08.212Z,104.96
2023-05-27T12:27:08.239Z,106.99
2023-05-27T12:28:08.276Z,95.39
2023-05-27T12:29:08.309Z,100.96
2023-05-27T12:30:08.349Z,96.29